createdAt,value
2022-09-04T00:00:53.709Z,0.00
2022-09-04T00:01:53.767Z,0.00
2022-09-04T00:02:53.694Z,0.00
2022-09-04T00:03:53.781Z,0.00
2022-09-04T00:04:53.826Z,0.00
2022-09-04T00:05:54.675Z,0.00
2022-09-04T00:06:53.667Z,0.00
2022-09-04T00:07:53.675Z,0.00
2022-09-04T00:08:53.665Z,0.00
2022-09-04T00:09:53.672Z,0.00
2022-09-04T00:10:53.658Z,0.00
2022-09-04T00:11:53.640Z,0.00
2022-09-04T00:12:53.646Z,0.00
2022-09-04T00:13:54.622Z,0.00
2022-09-04T00:14:53.655Z,0.00
2022-09-04T00:15:53.607Z,0.00
2022-09-04T00:16:53.689Z,0.00
2022-09-04T00:17:53.605Z,0.00
2022-09-04T00:18:53.610Z,0.00
2022-09-04T00:19:53.600Z,0.00
2022-09-04T00:20:53.800Z,0.00
2022-09-04T00:21:53.577Z,0.00
2022-09-04T00:22:53.586Z,0.00
2022-09-04T00:23:53.560Z,0.00
2022-09-04T00:24:53.563Z,0.00
2022-09-04T00:25:53.574Z,0.00
2022-09-04T00:26:53.557Z,0.00
2022-09-04T00:27:53.541Z,0.00
2022-09-04T00:28:53.533Z,0.00
2022-09-04T00:29:53.539Z,0.00
2022-09-04T00:30:53.549Z,0.00
2022-09-04T00:31:53.656Z,0.00
2022-09-04T00:32:53.510Z,0.00
2022-09-04T00:33:53.487Z,0.00
2022-09-04T00:34:53.501Z,0.00
2022-09-04T00:35:53.499Z,0.00
2022-09-04T00:36:53.506Z,0.00
2022-09-04T00:37:53.489Z,0.00
2022-09-04T00:38:53.478Z,0.00
2022-09-04T00:39:53.498Z,0.00
2022-09-04T00:40:53.470Z,0.00
2022-09-04T00:41:53.452Z,0.00
2022-09-04T00:42:53.477Z,0.00
2022-09-04T00:43:53.440Z,0.00
2022-09-04T00:44:53.451Z,0.00
2022-09-04T00:45:53.491Z,0.00
2022-09-04T00:46:53.414Z,0.00
2022-09-04T00:47:53.438Z,0.00
2022-09-04T00:48:53.411Z,0.00
2022-09-04T00:49:53.399Z,0.00
2022-09-04T00:50:53.395Z,0.00
2022-09-04T00:51:53.401Z,0.00
2022-09-04T00:52:56.635Z,0.00
2022-09-04T00:53:53.511Z,0.00
2022-09-04T00:54:53.381Z,0.00
2022-09-04T00:55:53.363Z,0.00
2022-09-04T00:56:53.371Z,0.00
2022-09-04T00:57:53.376Z,0.00
2022-09-04T00:58:53.385Z,0.00
2022-09-04T00:59:53.405Z,0.00
2022-09-04T01:00:53.391Z,0.00
2022-09-04T01:01:53.526Z,0.00
2022-09-04T01:02:53.331Z,0.00
2022-09-04T01:03:53.323Z,0.00
2022-09-04T01:04:53.425Z,0.00
2022-09-04T01:05:53.313Z,0.00
2022-09-04T01:06:53.310Z,0.00
2022-09-04T01:07:53.311Z,0.00
2022-09-04T01:08:56.307Z,0.00
2022-09-04T01:09:53.310Z,0.00
2022-09-04T01:10:53.274Z,0.00
2022-09-04T01:11:53.279Z,0.00
2022-09-04T01:12:53.266Z,0.00
2022-09-04T01:13:53.262Z,0.00
2022-09-04T01:14:53.417Z,0.00
2022-09-04T01:15:53.347Z,0.00
2022-09-04T01:16:53.271Z,0.00
2022-09-04T01:17:53.247Z,0.00
2022-09-04T01:18:53.229Z,0.00
2022-09-04T01:19:53.212Z,0.00
2022-09-04T01:20:53.240Z,0.00
2022-09-04T01:21:53.217Z,0.00
2022-09-04T01:22:53.212Z,0.00
2022-09-04T01:23:53.199Z,0.00
2022-09-04T01:24:53.216Z,0.00
2022-09-04T01:25:53.192Z,0.00
2022-09-04T01:26:53.199Z,0.00
2022-09-04T01:27:53.183Z,0.00
2022-09-04T01:28:53.169Z,0.00
2022-09-04T01:29:53.152Z,0.00
2022-09-04T01:30:53.147Z,0.00
2022-09-04T01:31:53.225Z,0.00
2022-09-04T01:32:53.170Z,0.00
2022-09-04T01:33:53.152Z,0.00
2022-09-04T01:34:53.133Z,0.00
2022-09-04T01:35:53.138Z,0.00
2022-09-04T01:36:53.114Z,0.00
2022-09-04T01:37:53.226Z,0.00
2022-09-04T01:38:53.098Z,0.00
2022-09-04T01:39:53.136Z,0.00
2022-09-04T01:40:53.097Z,0.00
2022-09-04T01:41:53.096Z,0.00
2022-09-04T01:42:53.080Z,0.00
2022-09-04T01:43:53.106Z,0.00
2022-09-04T01:44:53.074Z,0.00
2022-09-04T01:45:53.295Z,0.00
2022-09-04T01:46:53.060Z,0.00
2022-09-04T01:47:53.059Z,0.00
2022-09-04T01:48:53.060Z,0.00
2022-09-04T01:49:53.055Z,0.00
2022-09-04T01:50:53.045Z,0.00
2022-09-04T01:51:53.034Z,0.00
2022-09-04T01:52:53.036Z,0.00
2022-09-04T01:53:53.059Z,0.00
2022-09-04T01:54:53.000Z,0.00
2022-09-04T01:55:53.014Z,0.00
2022-09-04T01:56:52.994Z,0.00
2022-09-04T01:57:53.003Z,0.00
2022-09-04T01:58:52.994Z,0.00
2022-09-04T01:59:53.807Z,0.00
2022-09-04T02:00:53.682Z,0.00
2022-09-04T02:01:53.987Z,0.00
2022-09-04T02:02:53.394Z,0.00
2022-09-04T02:03:52.953Z,0.00
2022-09-04T02:04:52.985Z,0.00
2022-09-04T02:05:52.958Z,0.00
2022-09-04T02:06:52.931Z,0.00
2022-09-04T02:07:52.931Z,0.00
2022-09-04T02:08:52.938Z,0.00
2022-09-04T02:09:54.011Z,0.00
2022-09-04T02:10:53.008Z,0.00
2022-09-04T02:11:57.068Z,0.00
2022-09-04T02:12:52.898Z,0.00
2022-09-04T02:13:52.902Z,0.00
2022-09-04T02:14:52.899Z,0.00
2022-09-04T02:15:52.897Z,0.00
2022-09-04T02:16:52.869Z,0.00
2022-09-04T02:17:52.875Z,0.00
2022-09-04T02:18:52.865Z,0.00
2022-09-04T02:19:52.858Z,0.00
2022-09-04T02:20:52.842Z,0.00
2022-09-04T02:21:52.961Z,0.00
2022-09-04T02:22:52.822Z,0.00
2022-09-04T02:23:52.835Z,0.00
2022-09-04T02:24:52.844Z,0.00
2022-09-04T02:25:52.824Z,0.00
2022-09-04T02:26:52.846Z,0.00
2022-09-04T02:27:52.811Z,0.00
2022-09-04T02:28:52.820Z,0.00
2022-09-04T02:29:52.799Z,0.00
2022-09-04T02:30:54.529Z,0.00
2022-09-04T02:31:52.857Z,0.00
2022-09-04T02:32:52.821Z,0.00
2022-09-04T02:33:52.777Z,0.00
2022-09-04T02:34:52.762Z,0.00
2022-09-04T02:35:52.753Z,0.00
2022-09-04T02:36:52.748Z,0.00
2022-09-04T02:37:52.784Z,0.00
2022-09-04T02:38:52.778Z,0.00
2022-09-04T02:39:52.834Z,0.00
2022-09-04T02:40:52.721Z,0.00
2022-09-04T02:41:52.738Z,0.00
2022-09-04T02:42:52.731Z,0.00
2022-09-04T02:43:52.761Z,0.00
2022-09-04T02:44:52.707Z,0.00
2022-09-04T02:45:52.686Z,0.00
2022-09-04T02:46:52.752Z,0.00
2022-09-04T02:47:52.697Z,0.00
2022-09-04T02:48:52.712Z,0.00
2022-09-04T02:49:52.669Z,0.00
2022-09-04T02:50:52.664Z,0.00
2022-09-04T02:51:52.672Z,0.00
2022-09-04T02:52:52.655Z,0.00
2022-09-04T02:53:52.642Z,0.00
2022-09-04T02:54:52.774Z,0.00
2022-09-04T02:55:52.640Z,0.00
2022-09-04T02:56:52.637Z,0.00
2022-09-04T02:57:52.616Z,0.00
2022-09-04T02:58:52.615Z,0.00
2022-09-04T02:59:52.627Z,0.00
2022-09-04T03:00:52.695Z,0.00
2022-09-04T03:01:52.657Z,0.00
2022-09-04T03:02:52.597Z,0.00
2022-09-04T03:03:52.586Z,0.00
2022-09-04T03:04:52.583Z,0.00
2022-09-04T03:05:52.689Z,0.00
2022-09-04T03:06:52.584Z,0.00
2022-09-04T03:07:52.551Z,0.00
2022-09-04T03:08:53.447Z,0.00
2022-09-04T03:09:52.540Z,0.00
2022-09-04T03:10:52.651Z,0.00
2022-09-04T03:11:52.526Z,0.00
2022-09-04T03:12:52.532Z,0.00
2022-09-04T03:13:52.510Z,0.00
2022-09-04T03:14:52.524Z,0.00
2022-09-04T03:15:52.565Z,0.00
2022-09-04T03:16:52.507Z,0.00
2022-09-04T03:17:53.353Z,0.00
2022-09-04T03:18:52.474Z,0.00
2022-09-04T03:19:52.485Z,0.00
2022-09-04T03:20:52.471Z,0.00
2022-09-04T03:21:52.583Z,0.00
2022-09-04T03:22:52.460Z,0.00
2022-09-04T03:23:52.478Z,0.00
2022-09-04T03:24:52.453Z,0.00
2022-09-04T03:25:52.447Z,0.00
2022-09-04T03:26:52.440Z,0.00
2022-09-04T03:27:52.449Z,0.00
2022-09-04T03:28:52.432Z,0.00
2022-09-04T03:29:52.417Z,0.00
2022-09-04T03:30:52.429Z,0.00
2022-09-04T03:31:52.431Z,0.00
2022-09-04T03:32:52.511Z,0.00
2022-09-04T03:33:52.388Z,0.00
2022-09-04T03:34:52.363Z,0.00
2022-09-04T03:35:52.373Z,0.00
2022-09-04T03:36:52.372Z,0.00
2022-09-04T03:37:52.356Z,0.00
2022-09-04T03:38:52.404Z,0.00
2022-09-04T03:39:52.385Z,0.00
2022-09-04T03:40:52.350Z,0.00
2022-09-04T03:41:52.340Z,0.00
2022-09-04T03:42:52.317Z,0.00
2022-09-04T03:43:52.353Z,0.00
2022-09-04T03:44:52.338Z,0.00
2022-09-04T03:45:52.308Z,0.00
2022-09-04T03:46:52.345Z,0.00
2022-09-04T03:47:52.292Z,0.00
2022-09-04T03:48:52.311Z,0.00
2022-09-04T03:49:52.387Z,0.00
2022-09-04T03:50:52.275Z,0.00
2022-09-04T03:51:52.270Z,0.00
2022-09-04T03:52:52.261Z,0.00
2022-09-04T03:53:52.263Z,0.00
2022-09-04T03:54:52.283Z,0.00
2022-09-04T03:55:52.255Z,0.00
2022-09-04T03:56:52.245Z,0.00
2022-09-04T03:57:52.233Z,0.00
2022-09-04T03:58:52.222Z,0.00
2022-09-04T03:59:52.212Z,0.00
2022-09-04T04:00:52.285Z,0.00
2022-09-04T04:01:52.207Z,0.00
2022-09-04T04:02:52.276Z,0.00
2022-09-04T04:03:52.210Z,0.00
2022-09-04T04:04:52.213Z,0.00
2022-09-04T04:05:52.189Z,0.00
2022-09-04T04:06:52.187Z,0.00
2022-09-04T04:07:52.174Z,4.00
2022-09-04T04:08:52.163Z,0.00
2022-09-04T04:09:52.196Z,4.00
2022-09-04T04:10:52.141Z,4.00
2022-09-04T04:11:52.175Z,4.00
2022-09-04T04:12:52.145Z,4.00
2022-09-04T04:13:52.128Z,8.00
2022-09-04T04:14:52.114Z,8.00
2022-09-04T04:15:52.154Z,8.00
2022-09-04T04:16:56.123Z,8.00
2022-09-04T04:17:52.120Z,12.00
2022-09-04T04:18:52.094Z,12.00
2022-09-04T04:19:52.099Z,16.00
2022-09-04T04:20:52.090Z,16.00
2022-09-04T04:21:52.077Z,20.00
2022-09-04T04:22:52.119Z,20.00
2022-09-04T04:23:52.084Z,24.00
2022-09-04T04:24:52.063Z,28.00
2022-09-04T04:25:52.618Z,32.00
2022-09-04T04:26:54.820Z,40.00
2022-09-04T04:27:52.082Z,48.00
2022-09-04T04:28:52.022Z,52.00
2022-09-04T04:29:53.040Z,60.00
2022-09-04T04:30:52.030Z,68.00
2022-09-04T04:31:52.049Z,80.00
2022-09-04T04:32:52.001Z,88.00
2022-09-04T04:33:52.117Z,96.00
2022-09-04T04:34:51.996Z,108.00
2022-09-04T04:35:51.968Z,120.00
2022-09-04T04:36:52.991Z,132.00
2022-09-04T04:37:51.974Z,148.00
2022-09-04T04:38:52.097Z,160.00
2022-09-04T04:39:51.985Z,176.00
2022-09-04T04:40:51.973Z,188.00
2022-09-04T04:41:51.954Z,208.00
2022-09-04T04:42:51.950Z,228.00
2022-09-04T04:43:51.931Z,244.00
2022-09-04T04:44:51.960Z,268.00
2022-09-04T04:45:51.928Z,284.00
2022-09-04T04:46:51.975Z,308.00
2022-09-04T04:47:51.933Z,328.00
2022-09-04T04:48:51.924Z,348.00
2022-09-04T04:49:51.936Z,376.00
2022-09-04T04:50:51.904Z,400.00
2022-09-04T04:51:51.890Z,428.00
2022-09-04T04:52:51.907Z,456.00
2022-09-04T04:53:51.878Z,484.00
2022-09-04T04:54:51.876Z,512.00
2022-09-04T04:55:51.908Z,544.00
2022-09-04T04:56:51.883Z,576.00
2022-09-04T04:57:51.867Z,604.00
2022-09-04T04:58:51.906Z,636.00
2022-09-04T04:59:51.849Z,668.00
2022-09-04T05:00:52.551Z,696.00
2022-09-04T05:01:51.926Z,732.00
2022-09-04T05:02:51.964Z,768.00
2022-09-04T05:03:51.826Z,800.00
2022-09-04T05:04:51.821Z,840.00
2022-09-04T05:05:51.811Z,876.00
2022-09-04T05:06:51.901Z,916.00
2022-09-04T05:07:51.812Z,952.00
2022-09-04T05:08:51.788Z,988.00
2022-09-04T05:09:51.804Z,1024.00
2022-09-04T05:10:51.779Z,1064.00
2022-09-04T05:11:51.892Z,1100.00
2022-09-04T05:12:51.764Z,1140.00
2022-09-04T05:13:52.863Z,1176.00
2022-09-04T05:14:51.760Z,1224.00
2022-09-04T05:16:08.374Z,1268.00
2022-09-04T05:16:55.708Z,1316.00
2022-09-04T05:17:52.733Z,1368.00
2022-09-04T05:18:51.730Z,1412.00
2022-09-04T05:19:52.422Z,1452.00
2022-09-04T05:20:51.753Z,1500.00
2022-09-04T05:21:51.706Z,1544.00
2022-09-04T05:22:51.748Z,1584.00
2022-09-04T05:23:51.709Z,1624.00
2022-09-04T05:24:51.913Z,1660.00
2022-09-04T05:25:51.720Z,1704.00
2022-09-04T05:26:51.672Z,1748.00
2022-09-04T05:27:51.798Z,1804.00
2022-09-04T05:28:51.677Z,1852.00
2022-09-04T05:29:51.671Z,1888.00
2022-09-04T05:30:51.710Z,1920.00
2022-09-04T05:31:51.654Z,1948.00
2022-09-04T05:32:51.667Z,1976.00
2022-09-04T05:33:51.668Z,2012.00
2022-09-04T05:34:51.646Z,2052.00
2022-09-04T05:35:53.134Z,2096.00
2022-09-04T05:36:51.621Z,2140.00
2022-09-04T05:37:51.611Z,2188.00
2022-09-04T05:38:51.650Z,2236.00
2022-09-04T05:39:51.673Z,2292.00
2022-09-04T05:40:51.605Z,2356.00
2022-09-04T05:41:51.625Z,2432.00
2022-09-04T05:42:51.586Z,2508.00
2022-09-04T05:43:51.593Z,2580.00
2022-09-04T05:44:51.603Z,2640.00
2022-09-04T05:45:51.576Z,2692.00
2022-09-04T05:46:51.987Z,2732.00
2022-09-04T05:47:51.553Z,2752.00
2022-09-04T05:48:51.554Z,2752.00
2022-09-04T05:49:51.555Z,2752.00
2022-09-04T05:50:51.540Z,2780.00
2022-09-04T05:51:51.536Z,2848.00
2022-09-04T05:52:51.565Z,3012.00
2022-09-04T05:53:51.505Z,3104.00
2022-09-04T05:54:51.505Z,3180.00
2022-09-04T05:55:51.537Z,3292.00
2022-09-04T05:56:51.514Z,3772.00
2022-09-04T05:57:51.495Z,4152.00
2022-09-04T05:58:51.485Z,4040.00
2022-09-04T05:59:51.506Z,3696.00
2022-09-04T06:00:51.593Z,3392.00
2022-09-04T06:01:52.364Z,3320.00
2022-09-04T06:02:52.523Z,3204.00
2022-09-04T06:03:51.469Z,3448.00
2022-09-04T06:04:51.442Z,3432.00
2022-09-04T06:05:51.440Z,3272.00
2022-09-04T06:06:51.473Z,3308.00
2022-09-04T06:07:51.425Z,3384.00
2022-09-04T06:08:51.421Z,3584.00
2022-09-04T06:09:51.431Z,3676.00
2022-09-04T06:10:51.403Z,5032.00
2022-09-04T06:11:51.526Z,5200.00
2022-09-04T06:12:51.403Z,4080.00
2022-09-04T06:13:51.424Z,3364.00
2022-09-04T06:14:51.392Z,3436.00
2022-09-04T06:15:51.423Z,3468.00
2022-09-04T06:16:51.376Z,3496.00
2022-09-04T06:17:51.472Z,3548.00
2022-09-04T06:18:51.350Z,3876.00
2022-09-04T06:19:51.361Z,7892.00
2022-09-04T06:20:51.392Z,23520.00
2022-09-04T06:21:51.361Z,24448.00
2022-09-04T06:22:55.047Z,8532.00
2022-09-04T06:23:52.313Z,4672.00
2022-09-04T06:24:51.331Z,4012.00
2022-09-04T06:25:51.332Z,4204.00
2022-09-04T06:26:51.327Z,4532.00
2022-09-04T06:27:51.310Z,4104.00
2022-09-04T06:28:51.412Z,4256.00
2022-09-04T06:29:51.304Z,4600.00
2022-09-04T06:30:51.340Z,6100.00
2022-09-04T06:31:51.280Z,8204.00
2022-09-04T06:32:51.269Z,9076.00
2022-09-04T06:33:51.368Z,11188.00
2022-09-04T06:34:51.255Z,14324.00
2022-09-04T06:35:51.261Z,14840.00
2022-09-04T06:36:51.263Z,11160.00
2022-09-04T06:37:51.247Z,8432.00
2022-09-04T06:38:51.238Z,11056.00
2022-09-04T06:39:51.306Z,20736.00
2022-09-04T06:40:51.219Z,26528.00
2022-09-04T06:41:51.200Z,25984.00
2022-09-04T06:42:51.225Z,29248.00
2022-09-04T06:43:51.203Z,33280.00
2022-09-04T06:44:51.246Z,26240.00
2022-09-04T06:45:51.188Z,19584.00
2022-09-04T06:46:51.387Z,27840.00
2022-09-04T06:47:51.239Z,36576.00
2022-09-04T06:48:51.170Z,37824.00
2022-09-04T06:49:51.143Z,37984.00
2022-09-04T06:50:51.190Z,38112.00
2022-09-04T06:51:51.183Z,39424.00
2022-09-04T06:52:51.143Z,39936.00
2022-09-04T06:53:51.127Z,41952.00
2022-09-04T06:54:51.124Z,41696.00
2022-09-04T06:55:51.235Z,41376.00
2022-09-04T06:56:52.145Z,42656.00
2022-09-04T06:57:51.108Z,43392.00
2022-09-04T06:58:51.105Z,46272.00
2022-09-04T06:59:51.115Z,51008.00
2022-09-04T07:00:52.010Z,52608.00
2022-09-04T07:01:51.262Z,49792.00
2022-09-04T07:02:51.203Z,45216.00
2022-09-04T07:03:51.119Z,39424.00
2022-09-04T07:04:51.084Z,33376.00
2022-09-04T07:05:51.094Z,30240.00
2022-09-04T07:06:51.084Z,29696.00
2022-09-04T07:07:51.063Z,29472.00
2022-09-04T07:08:51.059Z,29472.00
2022-09-04T07:09:51.038Z,28608.00
2022-09-04T07:10:51.029Z,26976.00
2022-09-04T07:11:51.025Z,28512.00
2022-09-04T07:12:51.129Z,29152.00
2022-09-04T07:13:51.027Z,30208.00
2022-09-04T07:14:51.013Z,28480.00
2022-09-04T07:15:51.051Z,29120.00
2022-09-04T07:16:51.001Z,30720.00
2022-09-04T07:17:51.803Z,30848.00
2022-09-04T07:18:50.983Z,30784.00
2022-09-04T07:19:50.988Z,31072.00
2022-09-04T07:20:50.979Z,31680.00
2022-09-04T07:21:50.971Z,31936.00
2022-09-04T07:22:50.966Z,31104.00
2022-09-04T07:23:50.969Z,31168.00
2022-09-04T07:24:50.950Z,31616.00
2022-09-04T07:25:50.938Z,32576.00
2022-09-04T07:26:50.932Z,33728.00
2022-09-04T07:27:50.940Z,36352.00
2022-09-04T07:28:50.928Z,43232.00
2022-09-04T07:29:50.918Z,51360.00
2022-09-04T07:30:50.916Z,57248.00
2022-09-04T07:31:50.958Z,61344.00
2022-09-04T07:32:50.932Z,64320.00
2022-09-04T07:33:50.903Z,66144.00
2022-09-04T07:34:50.888Z,64608.00
2022-09-04T07:35:50.903Z,68736.00
2022-09-04T07:36:50.923Z,68000.00
2022-09-04T07:37:50.886Z,68416.00
2022-09-04T07:38:51.273Z,71104.00
2022-09-04T07:39:50.931Z,68096.00
2022-09-04T07:40:50.864Z,64000.00
2022-09-04T07:41:50.879Z,66112.00
2022-09-04T07:42:50.853Z,67680.00
2022-09-04T07:43:54.681Z,67040.00
2022-09-04T07:44:52.877Z,66080.00
2022-09-04T07:45:51.031Z,68544.00
2022-09-04T07:46:50.840Z,68576.00
2022-09-04T07:47:50.857Z,66432.00
2022-09-04T07:48:50.895Z,67744.00
2022-09-04T07:49:50.969Z,69408.00
2022-09-04T07:50:50.883Z,71648.00
2022-09-04T07:51:50.877Z,70464.00
2022-09-04T07:52:50.910Z,68320.00
2022-09-04T07:53:50.918Z,69760.00
2022-09-04T07:54:50.841Z,75104.00
2022-09-04T07:55:50.946Z,77408.00
2022-09-04T07:56:51.529Z,72416.00
2022-09-04T07:57:50.812Z,71520.00
2022-09-04T07:58:50.809Z,71104.00
2022-09-04T07:59:50.774Z,71936.00
2022-09-04T08:00:50.765Z,68000.00
2022-09-04T08:01:50.788Z,64704.00
2022-09-04T08:02:50.758Z,65856.00
2022-09-04T08:03:54.389Z,68512.00
2022-09-04T08:04:50.785Z,70432.00
2022-09-04T08:05:50.722Z,74080.00
2022-09-04T08:06:50.728Z,72864.00
2022-09-04T08:07:50.735Z,68576.00
2022-09-04T08:08:50.711Z,68032.00
2022-09-04T08:09:50.708Z,69920.00
2022-09-04T08:10:50.701Z,72000.00
2022-09-04T08:11:50.710Z,72864.00
2022-09-04T08:12:50.917Z,70688.00
2022-09-04T08:13:51.700Z,66912.00
2022-09-04T08:14:50.665Z,64064.00
2022-09-04T08:15:50.721Z,61728.00
2022-09-04T08:16:50.659Z,65216.00
2022-09-04T08:17:50.667Z,70848.00
2022-09-04T08:18:50.668Z,67680.00
2022-09-04T08:19:50.651Z,62304.00
2022-09-04T08:20:50.644Z,61440.00
2022-09-04T08:21:50.632Z,68800.00
2022-09-04T08:22:50.645Z,68416.00
2022-09-04T08:23:50.646Z,66816.00
2022-09-04T08:24:50.627Z,68864.00
2022-09-04T08:25:50.601Z,75072.00
2022-09-04T08:26:50.616Z,79488.00
2022-09-04T08:27:50.619Z,75776.00
2022-09-04T08:28:50.606Z,75168.00
2022-09-04T08:29:50.602Z,71552.00
2022-09-04T08:30:50.694Z,72576.00
2022-09-04T08:31:50.602Z,76640.00
2022-09-04T08:32:50.590Z,81792.00
2022-09-04T08:33:50.564Z,78464.00
2022-09-04T08:34:50.564Z,76000.00
2022-09-04T08:35:50.552Z,68800.00
2022-09-04T08:36:50.555Z,65472.00
2022-09-04T08:37:50.646Z,67360.00
2022-09-04T08:38:50.561Z,72064.00
2022-09-04T08:39:50.561Z,73184.00
2022-09-04T08:40:52.271Z,70688.00
2022-09-04T08:41:50.546Z,72352.00
2022-09-04T08:42:50.518Z,71488.00
2022-09-04T08:43:50.523Z,69760.00
2022-09-04T08:44:50.512Z,71200.00
2022-09-04T08:45:50.624Z,74496.00
2022-09-04T08:46:50.556Z,74112.00
2022-09-04T08:47:50.495Z,71808.00
2022-09-04T08:48:50.556Z,70496.00
2022-09-04T08:49:50.478Z,68224.00
2022-09-04T08:50:50.479Z,60064.00
2022-09-04T08:51:50.487Z,52224.00
2022-09-04T08:52:50.475Z,48800.00
2022-09-04T08:53:50.462Z,45056.00
2022-09-04T08:54:50.520Z,44608.00
2022-09-04T08:55:50.454Z,52256.00
2022-09-04T08:56:50.459Z,64608.00
2022-09-04T08:57:50.469Z,72704.00
2022-09-04T08:58:50.434Z,69248.00
2022-09-04T08:59:50.434Z,67072.00
2022-09-04T09:00:50.424Z,70592.00
2022-09-04T09:01:50.470Z,68064.00
2022-09-04T09:02:50.432Z,65632.00
2022-09-04T09:03:50.419Z,75392.00
2022-09-04T09:04:50.404Z,71520.00
2022-09-04T09:05:50.418Z,67744.00
2022-09-04T09:06:50.381Z,72256.00
2022-09-04T09:07:50.385Z,75648.00
2022-09-04T09:08:50.389Z,81216.00
2022-09-04T09:09:50.371Z,77216.00
2022-09-04T09:10:50.397Z,73728.00
2022-09-04T09:11:50.369Z,69056.00
2022-09-04T09:12:50.361Z,68064.00
2022-09-04T09:13:50.351Z,65760.00
2022-09-04T09:14:50.343Z,65824.00
2022-09-04T09:15:50.342Z,70272.00
2022-09-04T09:16:50.508Z,77024.00
2022-09-04T09:17:50.350Z,74432.00
2022-09-04T09:18:50.326Z,69248.00
2022-09-04T09:19:50.324Z,65728.00
2022-09-04T09:20:50.328Z,65920.00
2022-09-04T09:21:50.329Z,66720.00
2022-09-04T09:22:50.292Z,71488.00
2022-09-04T09:23:50.308Z,76288.00
2022-09-04T09:24:50.297Z,79552.00
2022-09-04T09:25:50.284Z,77888.00
2022-09-04T09:26:50.283Z,76416.00
2022-09-04T09:27:50.385Z,79008.00
2022-09-04T09:28:50.281Z,76896.00
2022-09-04T09:29:50.276Z,76640.00
2022-09-04T09:30:50.305Z,80544.00
2022-09-04T09:31:50.263Z,77056.00
2022-09-04T09:32:50.275Z,71552.00
2022-09-04T09:33:50.245Z,66752.00
2022-09-04T09:34:50.241Z,69984.00
2022-09-04T09:35:50.246Z,71808.00
2022-09-04T09:36:50.240Z,74912.00
2022-09-04T09:37:50.232Z,76256.00
2022-09-04T09:38:50.246Z,83872.00
2022-09-04T09:39:50.310Z,80576.00
2022-09-04T09:40:50.232Z,72640.00
2022-09-04T09:41:50.254Z,78656.00
2022-09-04T09:42:50.215Z,79840.00
2022-09-04T09:43:50.320Z,76320.00
2022-09-04T09:44:50.211Z,69568.00
2022-09-04T09:45:50.251Z,67360.00
2022-09-04T09:46:50.189Z,68928.00
2022-09-04T09:47:50.205Z,71616.00
2022-09-04T09:48:50.199Z,72992.00
2022-09-04T09:49:50.196Z,69824.00
2022-09-04T09:50:50.181Z,66496.00
2022-09-04T09:51:50.161Z,72512.00
2022-09-04T09:52:50.175Z,76736.00
2022-09-04T09:53:50.162Z,75616.00
2022-09-04T09:54:50.270Z,76288.00
2022-09-04T09:55:50.153Z,66688.00
2022-09-04T09:56:53.678Z,59424.00
2022-09-04T09:57:50.149Z,60768.00
2022-09-04T09:58:50.134Z,65280.00
2022-09-04T09:59:50.120Z,68512.00
2022-09-04T10:00:50.173Z,67936.00
2022-09-04T10:01:50.107Z,69056.00
2022-09-04T10:02:50.236Z,67552.00
2022-09-04T10:03:50.107Z,68832.00
2022-09-04T10:04:50.115Z,66880.00
2022-09-04T10:05:50.130Z,65984.00
2022-09-04T10:06:50.107Z,67072.00
2022-09-04T10:07:50.085Z,66912.00
2022-09-04T10:08:50.082Z,66528.00
2022-09-04T10:09:50.085Z,68800.00
2022-09-04T10:10:50.073Z,69952.00
2022-09-04T10:11:51.204Z,70464.00
2022-09-04T10:12:50.080Z,66016.00
2022-09-04T10:13:50.062Z,70624.00
2022-09-04T10:14:50.533Z,10348.00
2022-09-04T10:15:50.062Z,34560.00
2022-09-04T10:16:50.108Z,71136.00
2022-09-04T10:17:50.066Z,71136.00
2022-09-04T10:18:50.050Z,71840.00
2022-09-04T10:19:50.052Z,72448.00
2022-09-04T10:20:50.023Z,71584.00
2022-09-04T10:21:50.017Z,74528.00
2022-09-04T10:23:22.119Z,72608.00
2022-09-04T10:23:50.023Z,68384.00
2022-09-04T10:24:50.005Z,15136.00
2022-09-04T10:25:49.997Z,13252.00
2022-09-04T10:26:49.982Z,10140.00
2022-09-04T10:27:49.979Z,59488.00
2022-09-04T10:28:50.080Z,70400.00
2022-09-04T10:29:49.975Z,68704.00
2022-09-04T10:30:50.053Z,66176.00
2022-09-04T10:31:49.946Z,65824.00
2022-09-04T10:32:49.947Z,66240.00
2022-09-04T10:33:50.072Z,57472.00
2022-09-04T10:34:49.952Z,49216.00
2022-09-04T10:35:49.941Z,39072.00
2022-09-04T10:36:49.934Z,28448.00
2022-09-04T10:37:49.922Z,21248.00
2022-09-04T10:38:49.935Z,18432.00
2022-09-04T10:39:49.973Z,17600.00
2022-09-04T10:40:51.548Z,12312.00
2022-09-04T10:41:49.903Z,11884.00
2022-09-04T10:42:49.919Z,16544.00
2022-09-04T10:43:49.897Z,14560.00
2022-09-04T10:44:50.001Z,14472.00
2022-09-04T10:45:49.953Z,13808.00
2022-09-04T10:46:49.865Z,13156.00
2022-09-04T10:47:49.888Z,9404.00
2022-09-04T10:48:49.864Z,8900.00
2022-09-04T10:49:49.849Z,9768.00
2022-09-04T10:50:49.997Z,12272.00
2022-09-04T10:51:49.854Z,11696.00
2022-09-04T10:52:49.841Z,11312.00
2022-09-04T10:53:49.850Z,12172.00
2022-09-04T10:54:49.840Z,12172.00
2022-09-04T10:55:49.938Z,11644.00
2022-09-04T10:56:49.817Z,10652.00
2022-09-04T10:57:49.815Z,10316.00
2022-09-04T10:58:49.816Z,10036.00
2022-09-04T10:59:49.803Z,9900.00
2022-09-04T11:00:49.851Z,9908.00
2022-09-04T11:01:49.843Z,8916.00
2022-09-04T11:02:49.795Z,10728.00
2022-09-04T11:03:49.799Z,9328.00
2022-09-04T11:04:49.782Z,9824.00
2022-09-04T11:05:49.776Z,10084.00
2022-09-04T11:06:49.871Z,10208.00
2022-09-04T11:07:49.779Z,10088.00
2022-09-04T11:08:49.751Z,10112.00
2022-09-04T11:09:49.769Z,10200.00
2022-09-04T11:10:49.747Z,10176.00
2022-09-04T11:11:49.750Z,9908.00
2022-09-04T11:12:49.772Z,9608.00
2022-09-04T11:13:51.705Z,9180.00
2022-09-04T11:14:50.717Z,8904.00
2022-09-04T11:15:49.735Z,9404.00
2022-09-04T11:16:50.621Z,9228.00
2022-09-04T11:17:49.810Z,8848.00
2022-09-04T11:18:49.704Z,8660.00
2022-09-04T11:19:49.699Z,9024.00
2022-09-04T11:20:49.681Z,8836.00
2022-09-04T11:21:49.687Z,8548.00
2022-09-04T11:22:49.688Z,8348.00
2022-09-04T11:23:49.707Z,8344.00
2022-09-04T11:24:49.660Z,8796.00
2022-09-04T11:25:49.677Z,9228.00
2022-09-04T11:26:49.663Z,9628.00
2022-09-04T11:27:49.673Z,9612.00
2022-09-04T11:28:49.739Z,8880.00
2022-09-04T11:29:49.651Z,9188.00
2022-09-04T11:30:49.627Z,9016.00
2022-09-04T11:31:49.684Z,8848.00
2022-09-04T11:32:49.636Z,8732.00
2022-09-04T11:33:49.629Z,8628.00
2022-09-04T11:34:49.655Z,8176.00
2022-09-04T11:35:49.612Z,7996.00
2022-09-04T11:36:49.592Z,8224.00
2022-09-04T11:37:49.610Z,8860.00
2022-09-04T11:38:49.643Z,9240.00
2022-09-04T11:39:49.677Z,9088.00
2022-09-04T11:40:49.571Z,8772.00
2022-09-04T11:41:49.580Z,8388.00
2022-09-04T11:42:49.572Z,8256.00
2022-09-04T11:43:49.562Z,8276.00
2022-09-04T11:44:49.556Z,8576.00
2022-09-04T11:45:49.637Z,8988.00
2022-09-04T11:46:49.548Z,8752.00
2022-09-04T11:47:49.545Z,8120.00
2022-09-04T11:48:49.539Z,7852.00
2022-09-04T11:49:49.533Z,8188.00
2022-09-04T11:50:49.572Z,7960.00
2022-09-04T11:51:49.496Z,7812.00
2022-09-04T11:52:49.496Z,7956.00
2022-09-04T11:53:49.518Z,8652.00
2022-09-04T11:54:49.503Z,8944.00
2022-09-04T11:55:52.658Z,9036.00
2022-09-04T11:56:50.588Z,8984.00
2022-09-04T11:57:49.470Z,8760.00
2022-09-04T11:58:49.522Z,8892.00
2022-09-04T11:59:49.486Z,8992.00
2022-09-04T12:00:49.467Z,9176.00
2022-09-04T12:01:49.514Z,9308.00
2022-09-04T12:02:49.570Z,9380.00
2022-09-04T12:03:49.542Z,9532.00
2022-09-04T12:04:49.432Z,9744.00
2022-09-04T12:05:49.442Z,9952.00
2022-09-04T12:06:49.423Z,9920.00
2022-09-04T12:07:49.460Z,9804.00
2022-09-04T12:08:49.466Z,9696.00
2022-09-04T12:09:49.421Z,9644.00
2022-09-04T12:10:49.423Z,9584.00
2022-09-04T12:11:49.410Z,9436.00
2022-09-04T12:12:49.411Z,9316.00
2022-09-04T12:13:49.518Z,9144.00
2022-09-04T12:14:49.379Z,8916.00
2022-09-04T12:15:49.388Z,8744.00
2022-09-04T12:16:49.416Z,8612.00
2022-09-04T12:17:49.379Z,8604.00
2022-09-04T12:18:49.392Z,8656.00
2022-09-04T12:19:49.362Z,8608.00
2022-09-04T12:20:49.360Z,8564.00
2022-09-04T12:21:49.357Z,8744.00
2022-09-04T12:22:49.333Z,8952.00
2022-09-04T12:23:49.336Z,9096.00